createdAt,value
2024-04-14T00:01:05.243Z,98219.44
2024-04-14T00:03:27.173Z,98220.09
2024-04-14T00:05:29.268Z,98219.59
2024-04-14T00:07:31.230Z,98212.41
2024-04-14T00:09:33.477Z,98220.56
2024-04-14T00:11:35.470Z,98223.97
2024-04-14T00:13:37.325Z,98211.19
2024-04-14T00:15:39.283Z,98202.75
2024-04-14T00:17:41.358Z,98200.50
2024-04-14T00:19:43.781Z,98197.56
2024-04-14T00:21:46.610Z,98202.41
2024-04-14T00:23:48.968Z,98193.81
2024-04-14T00:25:50.808Z,98185.25
2024-04-14T00:27:52.879Z,98190.13
2024-04-14T00:29:54.851Z,98182.47
2024-04-14T00:31:56.754Z,98182.47
2024-04-14T00:33:58.717Z,98173.16
2024-04-14T00:36:00.733Z,98174.66
2024-04-14T00:38:02.720Z,98166.06
2024-04-14T00:40:05.004Z,98167.59
2024-04-14T00:42:06.974Z,98160.97
2024-04-14T00:44:08.849Z,98157.28
2024-04-14T00:46:10.896Z,98146.94
2024-04-14T00:48:13.868Z,98150.66
2024-04-14T00:50:17.363Z,98148.25
2024-04-14T00:52:19.353Z,98144.28
2024-04-14T00:54:22.121Z,98139.66
2024-04-14T00:56:24.777Z,98129.81
2024-04-14T00:58:27.941Z,98133.50
2024-04-14T01:00:30.936Z,98117.06
2024-04-14T01:02:33.059Z,98122.41
2024-04-14T01:04:35.191Z,98122.88
2024-04-14T01:06:37.796Z,98125.28
2024-04-14T01:08:39.758Z,98122.59
2024-04-14T01:10:42.102Z,98117.66
2024-04-14T01:12:44.916Z,98117.91
2024-04-14T01:14:46.866Z,98122.34
2024-04-14T01:16:49.328Z,98120.69
2024-04-14T01:18:51.528Z,98118.94
2024-04-14T01:20:53.353Z,98117.19
2024-04-14T01:22:55.301Z,98122.09
2024-04-14T01:25:08.145Z,98113.50
2024-04-14T01:27:12.574Z,98121.78
2024-04-14T01:29:16.788Z,98110.50
2024-04-14T01:31:18.995Z,98112.97
2024-04-14T01:33:20.938Z,98112.69
2024-04-14T01:35:22.790Z,98111.47
2024-04-14T01:37:24.757Z,98113.50
2024-04-14T01:39:26.677Z,98119.84
2024-04-14T01:41:28.521Z,98115.91
2024-04-14T01:43:31.014Z,98111.03
2024-04-14T01:45:33.297Z,98114.00
2024-04-14T01:47:35.405Z,98116.44
2024-04-14T01:49:37.790Z,98113.50
2024-04-14T01:51:39.709Z,98110.50
2024-04-14T01:53:41.742Z,98107.34
2024-04-14T01:55:47.686Z,98107.81
2024-04-14T01:57:49.633Z,98106.81
2024-04-14T01:59:51.510Z,98112.25
2024-04-14T02:01:53.581Z,98100.25
2024-04-14T02:03:55.606Z,98103.69
2024-04-14T02:05:58.432Z,98099.00
2024-04-14T02:08:00.445Z,98093.59
2024-04-14T02:10:04.036Z,98095.28
2024-04-14T02:12:06.463Z,98090.63
2024-04-14T02:14:08.526Z,98082.53
2024-04-14T02:16:10.717Z,98077.59
2024-04-14T02:18:12.825Z,98077.31
2024-04-14T02:20:14.830Z,98082.91
2024-04-14T02:22:16.689Z,98069.66
2024-04-14T02:24:18.572Z,98073.09
2024-04-14T02:26:21.165Z,98068.44
2024-04-14T02:28:23.206Z,98062.25
2024-04-14T02:30:25.056Z,98064.72
2024-04-14T02:32:26.996Z,98062.22
2024-04-14T02:34:28.880Z,98056.78
2024-04-14T02:36:30.818Z,98053.84
2024-04-14T02:38:33.002Z,98057.84
2024-04-14T02:40:34.929Z,98048.69
2024-04-14T02:42:36.860Z,98054.81
2024-04-14T02:44:38.862Z,98052.38
2024-04-14T02:46:40.734Z,98054.81
2024-04-14T02:48:49.701Z,98052.88
2024-04-14T02:50:51.720Z,98043.78
2024-04-14T02:52:53.630Z,98040.63
2024-04-14T02:54:56.245Z,98039.16
2024-04-14T02:56:58.594Z,98042.41
2024-04-14T02:59:00.448Z,98038.78
2024-04-14T03:01:03.599Z,98041.94
2024-04-14T03:03:06.139Z,98031.09
2024-04-14T03:05:08.067Z,98033.81
2024-04-14T03:07:09.946Z,98034.53
2024-04-14T03:09:11.881Z,98030.78
2024-04-14T03:11:13.924Z,98032.97
2024-04-14T03:13:15.833Z,98033.25
2024-04-14T03:15:17.982Z,98027.34
2024-04-14T03:17:22.367Z,98033.50
2024-04-14T03:19:24.392Z,98030.06
2024-04-14T03:21:26.386Z,98019.28
2024-04-14T03:23:28.847Z,98013.16
2024-04-14T03:25:30.781Z,98026.13
2024-04-14T03:27:32.788Z,98027.81
2024-04-14T03:29:35.019Z,98027.81
2024-04-14T03:31:36.958Z,98027.81
2024-04-14T03:33:39.101Z,98028.03
2024-04-14T03:35:41.194Z,98026.38
2024-04-14T03:37:43.364Z,98025.94
2024-04-14T03:39:45.362Z,98018.81
2024-04-14T03:41:47.223Z,98029.84
2024-04-14T03:43:49.499Z,98022.47
2024-04-14T03:45:51.776Z,98019.25
2024-04-14T03:47:53.870Z,98020.47
2024-04-14T03:49:55.873Z,98026.81
2024-04-14T03:51:57.951Z,98012.13
2024-04-14T03:53:59.869Z,98007.47
2024-04-14T03:56:01.688Z,98003.13
2024-04-14T03:58:03.705Z,98012.44
2024-04-14T04:00:07.003Z,98008.31
2024-04-14T04:02:09.422Z,97998.25
2024-04-14T04:04:11.473Z,98000.13
2024-04-14T04:06:13.769Z,98006.50
2024-04-14T04:08:15.633Z,97994.47
2024-04-14T04:10:17.823Z,97987.16
2024-04-14T04:12:20.013Z,97988.53
2024-04-14T04:14:21.908Z,97984.09
2024-04-14T04:16:23.828Z,97985.63
2024-04-14T04:18:27.309Z,97975.31
2024-04-14T04:20:29.333Z,97982.41
2024-04-14T04:22:31.610Z,97984.84
2024-04-14T04:24:34.121Z,97976.03
2024-04-14T04:26:36.005Z,97977.06
2024-04-14T04:28:37.913Z,97975.38
2024-04-14T04:30:39.954Z,97973.19
2024-04-14T04:32:41.889Z,97968.53
2024-04-14T04:34:45.211Z,97960.19
2024-04-14T04:36:47.205Z,97961.16
2024-04-14T04:38:49.404Z,97962.16
2024-04-14T04:40:52.922Z,97956.03
2024-04-14T04:42:54.958Z,97955.78
2024-04-14T04:44:56.926Z,97945.94
2024-04-14T04:46:58.819Z,97943.09
2024-04-14T04:49:00.828Z,97942.34
2024-04-14T04:51:03.070Z,97941.66
2024-04-14T04:53:05.263Z,97953.94
2024-04-14T04:55:07.401Z,97958.84
2024-04-14T04:57:09.258Z,97957.38
2024-04-14T04:59:11.097Z,97958.88
2024-04-14T05:01:13.130Z,97955.97
2024-04-14T05:03:15.140Z,97947.88
2024-04-14T05:05:17.207Z,97946.66
2024-04-14T05:07:19.104Z,97949.59
2024-04-14T05:09:21.020Z,97942.25
2024-04-14T05:11:22.974Z,97940.28
2024-04-14T05:13:26.083Z,97939.53
2024-04-14T05:15:28.003Z,97940.03
2024-04-14T05:17:29.957Z,97934.88
2024-04-14T05:19:31.959Z,97942.22
2024-04-14T05:21:34.030Z,97941.72
2024-04-14T05:23:35.998Z,97931.16
2024-04-14T05:25:38.791Z,97927.47
2024-04-14T05:27:40.982Z,97928.13
2024-04-14T05:29:47.183Z,97925.38
2024-04-14T05:31:49.169Z,97927.56
2024-04-14T05:33:55.702Z,97930.19
2024-04-14T05:35:58.896Z,97918.81
2024-04-14T05:38:00.872Z,97918.47
2024-04-14T05:40:02.825Z,97924.50
2024-04-14T05:42:05.251Z,97923.44
2024-04-14T05:44:07.545Z,97921.13
2024-04-14T05:46:09.893Z,97914.56
2024-04-14T05:48:11.996Z,97916.41
2024-04-14T05:50:14.243Z,97912.06
2024-04-14T05:52:16.120Z,97918.69
2024-04-14T05:54:18.094Z,97908.03
2024-04-14T05:56:19.989Z,97902.75
2024-04-14T05:58:21.851Z,97920.63
2024-04-14T06:00:23.730Z,97910.41
2024-04-14T06:02:25.666Z,97912.66
2024-04-14T06:04:27.704Z,97918.69
2024-04-14T06:06:29.701Z,97907.31
2024-04-14T06:08:31.750Z,97915.47
2024-04-14T06:10:33.781Z,97901.97
2024-04-14T06:12:35.652Z,97914.47
2024-04-14T06:14:37.548Z,97914.03
2024-04-14T06:16:39.668Z,97912.19
2024-04-14T06:18:41.748Z,97918.72
2024-04-14T06:20:43.717Z,97914.78
2024-04-14T06:22:45.758Z,97919.25
2024-04-14T06:24:47.844Z,97922.22
2024-04-14T06:26:49.828Z,97918.31
2024-04-14T06:28:51.765Z,97916.66
2024-04-14T06:30:53.676Z,97914.97
2024-04-14T06:32:55.645Z,97916.25
2024-04-14T06:34:57.713Z,97914.59
2024-04-14T06:36:59.623Z,97916.56
2024-04-14T06:39:01.483Z,97914.78
2024-04-14T06:41:04.403Z,97911.84
2024-04-14T06:43:06.551Z,97913.53
2024-04-14T06:45:08.605Z,97916.66
2024-04-14T06:47:10.506Z,97905.47
2024-04-14T06:49:12.360Z,97900.59
2024-04-14T06:51:14.302Z,97899.31
2024-04-14T06:53:16.230Z,97903.72
2024-04-14T06:55:20.204Z,97899.19
2024-04-14T06:57:22.063Z,97905.56
2024-04-14T06:59:23.986Z,97897.38
2024-04-14T07:01:25.938Z,97899.78
2024-04-14T07:03:28.079Z,97899.69
2024-04-14T07:05:30.146Z,97891.81
2024-04-14T07:07:34.639Z,97882.50
2024-04-14T07:09:38.055Z,97900.69
2024-04-14T07:11:40.193Z,97891.63
2024-04-14T07:13:42.374Z,97900.28
2024-04-14T07:15:44.339Z,97899.81
2024-04-14T07:17:46.229Z,97892.44
2024-04-14T07:19:48.107Z,97898.47
2024-04-14T07:21:50.001Z,97901.59
2024-04-14T07:23:51.889Z,97902.47
2024-04-14T07:25:53.778Z,97904.53
2024-04-14T07:27:55.717Z,97907.13
2024-04-14T07:29:57.582Z,97904.97
2024-04-14T07:31:59.439Z,97905.19
2024-04-14T07:34:03.329Z,97905.72
2024-04-14T07:36:05.866Z,97900.66
2024-04-14T07:38:08.102Z,97895.50
2024-04-14T07:40:10.784Z,97892.91
2024-04-14T07:42:12.807Z,97896.50
2024-04-14T07:44:14.679Z,97892.63
2024-04-14T07:46:16.571Z,97888.44
2024-04-14T07:48:18.585Z,97887.78
2024-04-14T07:50:20.631Z,97885.31
2024-04-14T07:52:22.474Z,97888.47
2024-04-14T07:54:24.678Z,97890.25
2024-04-14T07:56:26.614Z,97895.44
2024-04-14T07:58:28.803Z,97885.94
2024-04-14T08:00:30.931Z,97896.53
2024-04-14T08:02:33.116Z,97890.03
2024-04-14T08:04:35.210Z,97883.41
2024-04-14T08:06:37.578Z,97886.03
2024-04-14T08:08:39.670Z,97886.38
2024-04-14T08:10:41.650Z,97892.25
2024-04-14T08:12:43.617Z,97895.16
2024-04-14T08:14:45.527Z,97906.31
2024-04-14T08:16:47.432Z,97906.06
2024-04-14T08:18:49.668Z,97903.34
2024-04-14T08:20:59.924Z,97900.59
2024-04-14T08:23:01.806Z,97897.66
2024-04-14T08:25:04.554Z,97895.25
2024-04-14T08:27:06.623Z,97895.19
2024-04-14T08:29:08.495Z,97895.66
2024-04-14T08:31:10.383Z,97902.47
2024-04-14T08:33:12.459Z,97896.66
2024-04-14T08:35:14.371Z,97892.09
2024-04-14T08:37:18.890Z,97899.94
2024-04-14T08:39:22.574Z,97900.22
2024-04-14T08:41:28.991Z,97897.50
2024-04-14T08:43:31.031Z,97897.53
2024-04-14T08:45:34.245Z,97893.56
2024-04-14T08:47:37.573Z,97887.75
2024-04-14T08:49:40.901Z,97897.25
2024-04-14T08:51:42.833Z,97886.47
2024-04-14T08:53:45.915Z,97888.28
2024-04-14T08:55:48.079Z,97885.16
2024-04-14T08:57:50.172Z,97886.81
2024-04-14T08:59:52.607Z,97878.63
2024-04-14T09:01:54.772Z,97869.69
2024-04-14T09:03:56.818Z,97875.94
2024-04-14T09:06:04.268Z,97874.13
2024-04-14T09:08:06.579Z,97877.22
2024-04-14T09:10:09.107Z,97879.22
2024-04-14T09:12:12.656Z,97878.66
2024-04-14T09:14:14.530Z,97873.91
2024-04-14T09:16:19.385Z,97877.38
2024-04-14T09:18:21.433Z,97868.81
2024-04-14T09:20:23.314Z,97877.50
2024-04-14T09:22:25.627Z,97873.34
2024-04-14T09:24:31.184Z,97883.78
2024-04-14T09:26:33.416Z,97882.88
2024-04-14T09:28:36.499Z,97877.22
2024-04-14T09:30:39.400Z,97881.59
2024-04-14T09:32:42.010Z,97882.16
2024-04-14T09:34:44.493Z,97883.44
2024-04-14T09:36:49.199Z,97880.88
2024-04-14T09:38:55.457Z,97870.13
2024-04-14T09:40:58.209Z,97884.91
2024-04-14T09:43:01.550Z,97887.06
2024-04-14T09:45:07.688Z,97899.47
2024-04-14T09:47:10.130Z,97885.25
2024-04-14T09:49:13.168Z,97883.97
2024-04-14T09:51:16.166Z,97888.16
2024-04-14T09:53:20.545Z,97883.78
2024-04-14T09:55:22.511Z,97873.75
2024-04-14T09:57:24.522Z,97879.03
2024-04-14T09:59:26.434Z,97881.22
2024-04-14T10:01:40.355Z,97875.22
2024-04-14T10:03:46.187Z,97869.00
2024-04-14T10:05:50.335Z,97866.28
2024-04-14T10:07:52.319Z,97867.38
2024-04-14T10:09:57.240Z,97861.84
2024-04-14T10:12:01.490Z,97858.78
2024-04-14T10:14:03.523Z,97871.19
2024-04-14T10:16:08.297Z,97873.53
2024-04-14T10:18:17.306Z,97865.53
2024-04-14T10:20:19.403Z,97871.00
2024-04-14T10:22:22.978Z,97857.09
2024-04-14T10:24:25.039Z,97858.03
2024-04-14T10:26:30.939Z,97862.78
2024-04-14T10:28:33.206Z,97865.84
2024-04-14T10:30:35.341Z,97857.47
2024-04-14T10:32:37.456Z,97852.88
2024-04-14T10:34:39.446Z,97859.31
2024-04-14T10:36:42.713Z,97857.13
2024-04-14T10:38:48.323Z,97855.31
2024-04-14T10:40:50.438Z,97853.06
2024-04-14T10:42:53.022Z,97858.31
2024-04-14T10:44:55.211Z,97856.72
2024-04-14T10:46:58.093Z,97855.25
2024-04-14T10:49:00.137Z,97858.94
2024-04-14T10:51:03.291Z,97854.00
2024-04-14T10:53:05.487Z,97856.56
2024-04-14T10:55:07.671Z,97857.13
2024-04-14T10:57:10.365Z,97862.00
2024-04-14T10:59:13.733Z,97857.00
2024-04-14T11:01:16.440Z,97848.50
2024-04-14T11:03:19.462Z,97838.63
2024-04-14T11:05:24.270Z,97849.94
2024-04-14T11:07:26.340Z,97858.06
2024-04-14T11:09:30.548Z,97841.38
2024-04-14T11:11:32.804Z,97837.69
2024-04-14T11:13:35.900Z,97846.13
2024-04-14T11:15:41.127Z,97843.25
2024-04-14T11:17:43.839Z,97850.19
2024-04-14T11:19:46.676Z,97846.72
2024-04-14T11:21:48.727Z,97845.03
2024-04-14T11:23:51.003Z,97845.16
2024-04-14T11:25:53.246Z,97849.78
2024-04-14T11:27:56.276Z,97850.88
2024-04-14T11:29:58.581Z,97843.84
2024-04-14T11:32:09.198Z,97840.59
2024-04-14T11:34:12.857Z,97845.97
2024-04-14T11:36:15.484Z,97834.84
2024-04-14T11:38:17.652Z,97839.94
2024-04-14T11:40:22.650Z,97835.94
2024-04-14T11:42:27.844Z,97839.22
2024-04-14T11:44:29.775Z,97845.25
2024-04-14T11:46:31.798Z,97846.53
2024-04-14T11:48:33.906Z,97837.78
2024-04-14T11:50:36.480Z,97834.44
2024-04-14T11:52:38.473Z,97832.63
2024-04-14T11:54:40.478Z,97828.94
2024-04-14T11:56:42.477Z,97836.19
2024-04-14T11:58:44.358Z,97830.44
2024-04-14T12:00:46.340Z,97832.66
2024-04-14T12:02:48.390Z,97830.63
2024-04-14T12:04:52.684Z,97824.97
2024-04-14T12:06:55.425Z,97822.81
2024-04-14T12:08:57.788Z,97827.19
2024-04-14T12:11:00.368Z,97825.22
2024-04-14T12:13:02.545Z,97833.03
2024-04-14T12:15:06.061Z,97825.00
2024-04-14T12:17:08.779Z,97824.66
2024-04-14T12:19:10.766Z,97826.09
2024-04-14T12:21:12.782Z,97821.16
2024-04-14T12:23:14.647Z,97817.47
2024-04-14T12:25:16.679Z,97820.59
2024-04-14T12:27:18.563Z,97810.72
2024-04-14T12:29:20.509Z,97816.53
2024-04-14T12:31:22.543Z,97811.50
2024-04-14T12:33:24.576Z,97818.78
2024-04-14T12:35:26.462Z,97815.53
2024-04-14T12:37:28.415Z,97799.44
2024-04-14T12:39:32.234Z,97805.25
2024-04-14T12:41:34.935Z,97808.22
2024-04-14T12:43:36.824Z,97797.66
2024-04-14T12:45:43.198Z,97809.69
2024-04-14T12:47:45.224Z,97803.31
2024-04-14T12:49:47.162Z,97807.34
2024-04-14T12:51:49.151Z,97802.41
2024-04-14T12:53:51.176Z,97796.91
2024-04-14T12:55:53.021Z,97797.66
2024-04-14T12:57:54.977Z,97802.03
2024-04-14T12:59:56.974Z,97796.22
2024-04-14T13:01:58.964Z,97786.56
2024-04-14T13:04:01.088Z,97789.66
2024-04-14T13:06:03.060Z,97784.16
2024-04-14T13:08:05.285Z,97785.06
2024-04-14T13:10:07.950Z,97781.59
2024-04-14T13:12:11.354Z,97776.28
2024-04-14T13:14:13.488Z,97773.88
2024-04-14T13:16:15.510Z,97767.72
2024-04-14T13:18:17.564Z,97769.91
2024-04-14T13:20:19.426Z,97769.91
2024-04-14T13:22:21.257Z,97765.19
2024-04-14T13:24:23.224Z,97762.63
2024-04-14T13:26:25.308Z,97763.28
2024-04-14T13:28:31.902Z,97758.16
2024-04-14T13:30:33.948Z,97753.44
2024-04-14T13:32:36.579Z,97741.78
2024-04-14T13:34:39.058Z,97741.72
2024-04-14T13:36:40.919Z,97736.66
2024-04-14T13:38:42.866Z,97739.88
2024-04-14T13:40:44.840Z,97731.47
2024-04-14T13:42:46.719Z,97724.22
2024-04-14T13:44:48.638Z,97724.22
2024-04-14T13:46:50.486Z,97713.47
2024-04-14T13:48:52.426Z,97715.66
2024-04-14T13:50:54.366Z,97706.38
2024-04-14T13:52:56.444Z,97706.72
2024-04-14T13:55:00.603Z,97710.06
2024-04-14T13:57:02.901Z,97710.78
2024-04-14T13:59:04.845Z,97704.50
2024-04-14T14:01:11.349Z,97702.84
2024-04-14T14:03:13.747Z,97696.53
2024-04-14T14:05:15.724Z,97688.13
2024-04-14T14:07:22.508Z,97700.13
2024-04-14T14:09:24.775Z,97692.09
2024-04-14T14:11:26.896Z,97700.75
2024-04-14T14:13:30.573Z,97697.81
2024-04-14T14:15:32.756Z,97707.44
2024-04-14T14:17:34.785Z,97700.13
2024-04-14T14:19:36.786Z,97704.94
2024-04-14T14:21:38.794Z,97706.72
2024-04-14T14:23:40.753Z,97701.41
2024-04-14T14:25:49.280Z,97696.63
2024-04-14T14:27:51.209Z,97691.00
2024-04-14T14:29:53.038Z,97701.66
2024-04-14T14:31:54.946Z,97688.91
2024-04-14T14:34:15.690Z,97699.84
2024-04-14T14:36:35.026Z,97696.94
2024-04-14T14:38:39.674Z,97679.78
2024-04-14T14:40:42.055Z,97679.28
2024-04-14T14:42:43.934Z,97680.56
2024-04-14T14:44:45.903Z,97672.38
2024-04-14T14:46:47.932Z,97667.81
2024-04-14T14:48:50.828Z,97671.44
2024-04-14T14:50:52.761Z,97667.06
2024-04-14T14:52:54.740Z,97659.59
2024-04-14T14:54:57.075Z,97660.88
2024-04-14T14:56:59.368Z,97661.25
2024-04-14T14:59:01.287Z,97661.97
2024-04-14T15:01:03.517Z,97656.69
2024-04-14T15:03:05.658Z,97660.88
2024-04-14T15:05:08.032Z,97662.34
2024-04-14T15:07:10.138Z,97663.41
2024-04-14T15:09:12.120Z,97667.81
2024-04-14T15:11:21.382Z,97665.22
2024-04-14T15:13:23.594Z,97662.34
2024-04-14T15:15:25.560Z,97662.34
2024-04-14T15:17:28.012Z,97668.16
2024-04-14T15:19:34.505Z,97659.41
2024-04-14T15:21:38.761Z,97661.22
2024-04-14T15:23:40.865Z,97655.03
2024-04-14T15:25:43.627Z,97654.28
2024-04-14T15:27:45.620Z,97649.56
2024-04-14T15:29:48.266Z,97641.91
2024-04-14T15:31:50.355Z,97641.72
2024-04-14T15:33:52.448Z,97643.34
2024-04-14T15:35:54.458Z,97651.38
2024-04-14T15:45:45.496Z,97667.84
2024-04-14T15:47:47.537Z,97669.31
2024-04-14T15:49:49.597Z,97674.94
2024-04-14T15:51:51.448Z,97667.47
2024-04-14T15:53:53.401Z,97662.38
2024-04-14T15:55:55.440Z,97668.41
2024-04-14T15:57:57.443Z,97667.84
2024-04-14T15:59:59.417Z,97665.66
2024-04-14T16:02:01.290Z,97669.31
2024-04-14T16:04:03.477Z,97673.69
2024-04-14T16:06:05.775Z,97666.75
2024-04-14T16:08:07.633Z,97670.78
2024-04-14T16:10:09.724Z,97666.75
2024-04-14T16:12:11.715Z,97666.38
2024-04-14T16:14:13.599Z,97665.31
2024-04-14T16:16:15.975Z,97663.09
2024-04-14T16:18:19.281Z,97662.03
2024-04-14T16:20:21.307Z,97667.09
2024-04-14T16:22:23.680Z,97675.69
2024-04-14T16:24:25.625Z,97673.31
2024-04-14T16:26:27.534Z,97677.63
2024-04-14T16:28:29.540Z,97682.34
2024-04-14T16:30:31.419Z,97680.50
2024-04-14T16:32:33.522Z,97691.00
2024-04-14T16:34:35.541Z,97688.50
2024-04-14T16:36:40.885Z,97693.00
2024-04-14T16:38:44.578Z,97693.03
2024-04-14T16:40:46.868Z,97699.47
2024-04-14T16:42:49.013Z,97696.53
2024-04-14T16:44:50.980Z,97697.59
2024-04-14T16:46:53.055Z,97687.88
2024-04-14T16:48:55.028Z,97691.84
2024-04-14T16:50:57.102Z,97695.75
2024-04-14T16:52:59.063Z,97697.09
2024-04-14T16:55:00.990Z,97700.41
2024-04-14T16:57:03.086Z,97702.88
2024-04-14T16:59:05.096Z,97708.53
2024-04-14T17:01:07.330Z,97703.00
2024-04-14T17:03:09.302Z,97707.63
2024-04-14T17:05:11.334Z,97699.75
2024-04-14T17:07:14.137Z,97719.97
2024-04-14T17:09:16.070Z,97718.19
2024-04-14T17:11:18.124Z,97723.63
2024-04-14T17:13:20.424Z,97724.56
2024-04-14T17:15:22.343Z,97720.94
2024-04-14T17:17:24.266Z,97716.78
2024-04-14T17:19:26.115Z,97717.50
2024-04-14T17:21:27.972Z,97721.41
2024-04-14T17:23:30.011Z,97720.56
2024-04-14T17:25:31.900Z,97725.16
2024-04-14T17:27:34.060Z,97731.63
2024-04-14T17:29:36.237Z,97736.03
2024-04-14T17:31:38.155Z,97729.03
2024-04-14T17:33:40.399Z,97729.94
2024-04-14T17:35:42.687Z,97730.38
2024-04-14T17:37:45.050Z,97726.97
2024-04-14T17:39:46.935Z,97733.78
2024-04-14T17:41:49.156Z,97737.94
2024-04-14T17:43:51.041Z,97740.31
2024-04-14T17:45:52.990Z,97739.06
2024-04-14T17:47:54.983Z,97737.97
2024-04-14T17:49:56.881Z,97742.00
2024-04-14T17:51:58.969Z,97745.66
2024-04-14T17:54:01.186Z,97732.00
2024-04-14T17:56:03.280Z,97740.06
2024-04-14T17:58:05.236Z,97740.56
2024-04-14T18:00:07.864Z,97741.44
2024-04-14T18:02:09.854Z,97740.84
2024-04-14T18:04:11.975Z,97749.94
2024-04-14T18:06:14.172Z,97757.94
2024-04-14T18:08:16.876Z,97757.44
2024-04-14T18:10:23.575Z,97756.34
2024-04-14T18:12:25.692Z,97760.81
2024-04-14T18:14:27.593Z,97759.63
2024-04-14T18:16:29.580Z,97767.56
2024-04-14T18:18:34.608Z,97766.81
2024-04-14T18:20:36.571Z,97775.91
2024-04-14T18:22:38.422Z,97770.03
2024-04-14T18:24:41.618Z,97764.75
2024-04-14T18:26:44.528Z,97782.53
2024-04-14T18:28:48.645Z,97787.66
2024-04-14T18:30:50.821Z,97786.59
2024-04-14T18:32:52.791Z,97778.91
2024-04-14T18:34:54.666Z,97783.63
2024-04-14T18:36:56.806Z,97794.47
2024-04-14T18:38:58.917Z,97787.88
2024-04-14T18:41:01.063Z,97791.75
2024-04-14T18:43:03.321Z,97792.47
2024-04-14T18:45:05.616Z,97796.28
2024-04-14T18:47:11.690Z,97793.78
2024-04-14T18:49:14.109Z,97791.91
2024-04-14T18:51:15.991Z,97794.81
2024-04-14T18:53:17.883Z,97788.50
2024-04-14T18:55:20.036Z,97781.88
2024-04-14T18:57:22.115Z,97789.34
2024-04-14T18:59:24.742Z,97789.41
2024-04-14T19:01:27.439Z,97801.50
2024-04-14T19:03:30.239Z,97794.72
2024-04-14T19:05:35.294Z,97794.72
2024-04-14T19:07:37.271Z,97789.59
2024-04-14T19:09:40.807Z,97791.91
2024-04-14T19:11:42.950Z,97787.03
2024-04-14T19:13:45.107Z,97795.22
2024-04-14T19:15:48.837Z,97795.97
2024-04-14T19:17:51.446Z,97798.41
2024-04-14T19:19:53.812Z,97798.97
2024-04-14T19:21:56.035Z,97802.97
2024-04-14T19:23:57.950Z,97791.16
2024-04-14T19:26:10.939Z,97796.56
2024-04-14T19:28:16.398Z,97803.50
2024-04-14T19:30:18.658Z,97807.28
2024-04-14T19:32:20.896Z,97809.88
2024-04-14T19:34:25.342Z,97806.88
2024-04-14T19:36:29.596Z,97807.66
2024-04-14T19:38:35.398Z,97808.56
2024-04-14T19:40:37.331Z,97811.97
2024-04-14T19:42:41.413Z,97818.59
2024-04-14T19:44:43.523Z,97809.78
2024-04-14T19:46:45.642Z,97812.78
2024-04-14T19:48:47.767Z,97815.25
2024-04-14T19:50:49.999Z,97817.41
2024-04-14T19:52:53.029Z,97832.09
2024-04-14T19:54:56.851Z,97828.16
2024-04-14T19:56:59.053Z,97823.72
2024-04-14T19:59:01.043Z,97821.94
2024-04-14T20:01:05.431Z,97825.66
2024-04-14T20:03:10.044Z,97811.59
2024-04-14T20:05:12.044Z,97808.63
2024-04-14T20:07:14.010Z,97799.22
2024-04-14T20:09:16.236Z,97798.28
2024-04-14T20:11:18.223Z,97805.00
2024-04-14T20:13:20.223Z,97805.75
2024-04-14T20:15:23.910Z,97798.91
2024-04-14T20:17:25.944Z,97806.56
2024-04-14T20:19:28.019Z,97792.59
2024-04-14T20:21:30.391Z,97790.63
2024-04-14T20:23:34.532Z,97788.38
2024-04-14T20:25:36.422Z,97788.94
2024-04-14T20:27:39.403Z,97789.22
2024-04-14T20:29:41.437Z,97789.94
2024-04-14T20:31:43.308Z,97790.63
2024-04-14T20:33:46.979Z,97781.59
2024-04-14T20:35:50.844Z,97789.28
2024-04-14T20:37:52.762Z,97793.22
2024-04-14T20:39:54.707Z,97788.81
2024-04-14T20:41:56.592Z,97793.47
2024-04-14T20:43:58.434Z,97793.00
2024-04-14T20:46:00.460Z,97797.69
2024-04-14T20:48:02.819Z,97800.41
2024-04-14T20:50:05.058Z,97795.97
2024-04-14T20:52:07.342Z,97799.19
2024-04-14T20:54:09.380Z,97807.47
2024-04-14T20:56:11.588Z,97807.25
2024-04-14T20:58:13.767Z,97815.13
2024-04-14T21:00:15.812Z,97821.59
2024-04-14T21:02:18.324Z,97817.88
2024-04-14T21:04:21.270Z,97815.47
2024-04-14T21:06:25.527Z,97824.34
2024-04-14T21:08:27.436Z,97813.78
2024-04-14T21:10:30.372Z,97810.03
2024-04-14T21:12:33.365Z,97815.69
2024-04-14T21:14:35.226Z,97815.16
2024-04-14T21:16:37.366Z,97812.25
2024-04-14T21:18:42.237Z,97813.22
2024-04-14T21:20:44.278Z,97815.69
2024-04-14T21:22:47.403Z,97811.53
2024-04-14T21:24:49.244Z,97815.94
2024-04-14T21:26:51.301Z,97813.75
2024-04-14T21:28:53.621Z,97811.75
2024-04-14T21:30:56.477Z,97813.94
2024-04-14T21:32:58.506Z,97817.38
2024-04-14T21:35:00.684Z,97814.38
2024-04-14T21:37:03.002Z,97807.00
2024-04-14T21:39:05.250Z,97812.50
2024-04-14T21:41:08.087Z,97803.69
2024-04-14T21:43:10.003Z,97812.16
2024-04-14T21:45:11.881Z,97809.72
2024-04-14T21:47:13.956Z,97807.00
2024-04-14T21:49:16.102Z,97804.59
2024-04-14T21:51:18.102Z,97810.50
2024-04-14T21:53:20.226Z,97806.53
2024-04-14T21:55:22.425Z,97813.81
2024-04-14T21:57:24.305Z,97810.66
2024-04-14T21:59:27.148Z,97809.66
2024-04-14T22:01:29.244Z,97801.03
2024-04-14T22:03:31.325Z,97805.97
2024-04-14T22:05:33.560Z,97792.94
2024-04-14T22:07:35.470Z,97800.78
2024-04-14T22:09:37.395Z,97794.94
2024-04-14T22:11:39.532Z,97800.06
2024-04-14T22:13:41.468Z,97796.38
2024-04-14T22:15:43.706Z,97793.72
2024-04-14T22:17:45.654Z,97791.34
2024-04-14T22:19:47.637Z,97787.16
2024-04-14T22:21:49.516Z,97789.34
2024-04-14T22:23:51.735Z,97796.91
2024-04-14T22:25:53.908Z,97797.44
2024-04-14T22:27:55.820Z,97792.50
2024-04-14T22:29:57.838Z,97796.44
2024-04-14T22:31:59.818Z,97796.53
2024-04-14T22:34:01.775Z,97788.00
2024-04-14T22:36:04.005Z,97789.47
2024-04-14T22:38:05.840Z,97794.44
2024-04-14T22:40:08.773Z,97790.25
2024-04-14T22:42:10.801Z,97777.50
2024-04-14T22:44:14.421Z,97788.53
2024-04-14T22:46:16.396Z,97790.03
2024-04-14T22:48:18.562Z,97788.53
2024-04-14T22:50:20.460Z,97791.47
2024-04-14T22:52:22.379Z,97774.53
2024-04-14T22:54:24.226Z,97782.63
2024-04-14T22:56:26.082Z,97779.91
2024-04-14T22:58:27.904Z,97776.69
2024-04-14T23:00:29.836Z,97776.44
2024-04-14T23:02:31.736Z,97772.22
2024-04-14T23:04:33.905Z,97777.38
2024-04-14T23:06:35.810Z,97777.66
2024-04-14T23:08:38.229Z,97767.84
2024-04-14T23:10:40.085Z,97764.41
2024-04-14T23:12:42.700Z,97757.81
2024-04-14T23:14:44.716Z,97765.44
2024-04-14T23:16:46.658Z,97766.47
2024-04-14T23:18:48.536Z,97753.94
2024-04-14T23:20:50.430Z,97762.53
2024-04-14T23:22:52.881Z,97748.31
2024-04-14T23:24:54.888Z,97745.13
2024-04-14T23:26:56.748Z,97746.56
2024-04-14T23:28:58.855Z,97743.84
2024-04-14T23:31:00.983Z,97737.47
2024-04-14T23:33:03.035Z,97737.50
2024-04-14T23:35:05.239Z,97743.88
2024-04-14T23:37:07.477Z,97734.34
2024-04-14T23:39:10.368Z,97744.13
2024-04-14T23:41:12.261Z,97727.22
2024-04-14T23:43:14.235Z,97723.97
2024-04-14T23:45:16.153Z,97720.06
2024-04-14T23:47:18.080Z,97720.78
2024-04-14T23:49:21.235Z,97718.28
2024-04-14T23:51:23.130Z,97713.59
2024-04-14T23:53:25.100Z,97704.75
2024-04-14T23:55:27.035Z,97696.63
2024-04-14T23:57:29.123Z,97703.28
2024-04-14T23:59:30.994Z,97696.34
